Bishopton, United Kingdom

11:12 PM GMT on December 10, 2016 (GMT +0000)
Houston Road | | Change Station

Elev 29 ft 55.87 °N, 4.49 °W | Updated 1 minute ago

Partly Cloudy
Partly Cloudy
45.3 °F
Feels Like 43 °F
N
4.3
Wind Variable Wind from West
Gusts 10.6 mph

Today
High -- | Low -- °F
--% Chance of Precip.
Yesterday
High -- | Low -- °F
Precip. -- in
Pressure 29.98 in
Visibility 6.2 miles
Clouds Few 2400 ft
Windchill 43 °F
Dew Point 40 °F
Humidity 80%
Rainfall 0.06 in
Snow Depth Not available.
8:37 AM 3:44 PM
Waxing Gibbous, 87% visible
METAR EGPF 102250Z AUTO 24010KT 9999 FEW024 07/05 Q1015
Pressure 29.98 in
Visibility 6.2 miles
Clouds Few 2400 ft
Windchill 43 °F
Dew Point 40 °F
Humidity 80%
Rainfall 0.06 in
Snow Depth Not available.
8:37 AM 3:44 PM
Waxing Gibbous, 87% visible
METAR EGPF 102250Z AUTO 24010KT 9999 FEW024 07/05 Q1015

10-Day Weather Forecast

×

Almanac

Astronomy

Dec. 10, 2016 Rise Set
Actual Time
Civil Twilight
Nautical Twilight
Astronomical Twilight
Moon
Length of Visible Light
Length of Day
Tomorrow will be .
, % of the Moon is Illuminated

Today's Extremes

Country Highs Country Lows

Community

WunderPhotos

Upload Photos

1,956,670 photos uploaded!

WunderBlog® & News

Nearby

Air Quality

  Air Quality AQ Index Pollutant
Not available.

Snow Depth

Station Depth Elevation

Earthquake Activity

City Distance Mag. Time & Date
Minimum magnitude displayed is 2.5.

Coastal Water Temperatures

Place Temperature

Stations

Nearby Weather Stations

Station Location Temp. Windchill Dew Point Humidity Wind Precip. Elev Updated Type